Terminal Aerodrome Forecast
Issued by NWS Paducah, KY

Home | Current Version | Previous Version | Graphics & Text | Print | Product List | Glossary On
Versions: 1 2 3 4 5 6 7 8 9 10 11 12 13
281
FTUS43 KPAH 242320
TAFEVV
TAF
KEVV 242320Z 2500/2524 34003KT P6SM SKC
     FM251000 00000KT 5SM BR SKC
     FM251300 VRB03KT P6SM SCT050=

USA.gov is the U.S. government's official web portal to all federal, state and local government web resources and services.